Time;durP1;ratioP1;P1;durP2;ratioP2;P2;SDS_P1;SDS_P2;PMS_P1;PMS_P2;Temp;Humidity;BMP_temperature;BMP_pressure;BME280_temperature;BME280_humidity;BME280_pressure;Samples;Min_cycle;Max_cycle;Signal;HPM_P1;HPM_P2
2022/06/02 00:01:02;;;;;;;2.08;1.08;;;;;;;;;;4985162;28;20492;-71
2022/06/02 00:03:41;;;;;;;2.53;1.23;;;17.20;94.50;;;;;;4984126;28;20041;-71
2022/06/02 00:06:11;;;;;;;2.45;1.20;;;;;;;;;;4983424;28;20030;-72
2022/06/02 00:08:49;;;;;;;1.55;1.15;;;;;;;;;;4984196;28;20050;-73
2022/06/02 00:11:15;;;;;;;2.28;0.98;;;;;;;;;;4988101;28;20097;-72
2022/06/02 00:14:01;;;;;;;1.83;1.45;;;;;;;;;;4983514;28;20105;-72
2022/06/02 00:16:34;;;;;;;1.23;0.90;;;;;;;;;;4970697;28;20038;-72
2022/06/02 00:19:03;;;;;;;2.25;1.45;;;;;;;;;;4986439;28;20508;-71
2022/06/02 00:21:29;;;;;;;2.28;1.33;;;;;;;;;;4985506;28;20092;-72
2022/06/02 00:24:28;;;;;;;3.92;1.75;;;17.30;95.00;;;;;;4985657;28;20117;-72
2022/06/02 00:27:38;;;;;;;1.95;1.38;;;17.30;94.90;;;;;;4981174;28;20117;-71
2022/06/02 00:30:04;;;;;;;2.63;1.60;;;;;;;;;;4918687;29;20063;-72
2022/06/02 00:32:50;;;;;;;2.10;1.60;;;;;;;;;;4926134;29;20051;-72
2022/06/02 00:35:19;;;;;;;3.00;1.73;;;;;;;;;;4928992;29;20051;-71
2022/06/02 00:37:50;;;;;;;4.95;1.73;;;;;;;;;;4931379;29;20044;-72
2022/06/02 00:40:17;;;;;;;2.15;1.45;;;;;;;;;;4932751;29;20501;-73
2022/06/02 00:42:58;;;;;;;2.35;1.70;;;;;;;;;;4912783;29;20079;-71
2022/06/02 00:45:25;;;;;;;3.58;1.25;;;;;;;;;;4929117;29;20092;-72
2022/06/02 00:47:51;;;;;;;1.90;1.33;;;;;;;;;;4928224;29;20055;-71
2022/06/02 00:50:35;;;;;;;1.55;1.27;;;;;;;;;;4929048;29;20197;-71
2022/06/02 00:53:10;;;;;;;2.20;1.45;;;;;;;;;;4918410;29;20116;-72
2022/06/02 00:59:08;;;;;;;2.75;1.58;;;;;;;;;;4890931;29;20605;-71
2022/06/02 01:01:35;;;;;;;2.05;1.52;;;;;;;;;;4950819;28;20048;-72
2022/06/02 01:04:03;;;;;;;2.83;1.63;;;;;;;;;;4983353;28;20625;-71
2022/06/02 01:06:56;;;;;;;1.40;1.30;;;17.10;95.60;;;;;;4987556;28;20022;-72
2022/06/02 01:09:42;;;;;;;1.92;1.38;;;17.10;95.80;;;;;;4986921;28;20210;-72
2022/06/02 01:12:08;;;;;;;1.27;0.90;;;;;;;;;;4988850;28;20129;-71
2022/06/02 01:14:53;;;;;;;2.45;1.63;;;;;;;;;;4990707;28;20110;-72
2022/06/02 01:17:36;;;;;;;2.65;1.13;;;17.10;95.70;;;;;;4989839;28;20665;-70
2022/06/02 01:20:08;;;;;;;2.08;1.52;;;;;;;;;;4991312;28;20042;-71
2022/06/02 01:22:58;;;;;;;2.10;2.00;;;17.20;95.70;;;;;;4987419;28;20399;-72
2022/06/02 01:25:48;;;;;;;2.17;1.40;;;17.10;95.70;;;;;;4993265;28;20027;-71
2022/06/02 01:28:23;;;;;;;2.90;1.48;;;;;;;;;;4987807;28;20589;-72
2022/06/02 01:30:51;;;;;;;1.98;1.25;;;;;;;;;;4986908;28;20085;-72
2022/06/02 01:33:17;;;;;;;1.58;1.13;;;;;;;;;;4988747;28;20030;-72
2022/06/02 01:35:49;;;;;;;3.03;1.80;;;;;;;;;;4988059;28;20026;-71
2022/06/02 01:38:43;;;;;;;3.13;1.98;;;17.00;96.90;;;;;;4990961;28;20541;-72
2022/06/02 01:41:21;;;;;;;2.88;1.98;;;;;;;;;;4981468;28;20479;-71
2022/06/02 01:43:58;;;;;;;4.68;1.85;;;;;;;;;;4987744;28;20038;-71
2022/06/02 01:46:32;;;;;;;3.38;1.98;;;;;;;;;;4987633;28;20025;-71
2022/06/02 01:49:04;;;;;;;3.55;1.92;;;;;;;;;;4986160;28;20522;-71
2022/06/02 01:51:30;;;;;;;3.38;1.63;;;;;;;;;;4990457;28;20046;-72
2022/06/02 01:53:56;;;;;;;4.07;2.22;;;;;;;;;;4989345;28;20514;-72
2022/06/02 01:56:40;;;;;;;1.77;1.50;;;16.80;98.50;;;;;;4991205;28;20040;-71
2022/06/02 01:59:29;;;;;;;3.42;1.60;;;;;;;;;;5005997;28;20030;-71
2022/06/02 02:02:13;;;;;;;2.38;1.50;;;16.70;99.90;;;;;;4986282;28;20036;-72
2022/06/02 02:04:45;;;;;;;2.15;1.42;;;;;;;;;;4988998;28;20109;-72
2022/06/02 02:07:11;;;;;;;2.38;1.25;;;;;;;;;;4985528;28;20085;-72
2022/06/02 02:09:49;;;;;;;2.00;1.48;;;;;;;;;;4985317;28;20030;-71
2022/06/02 02:12:35;;;;;;;2.38;1.52;;;16.70;99.70;;;;;;4985918;28;20614;-72
2022/06/02 02:15:41;;;;;;;1.98;1.50;;;16.60;99.50;;;;;;4986867;28;20487;-71
2022/06/02 02:18:14;;;;;;;2.58;0.90;;;16.80;99.90;;;;;;4979465;28;20037;-72
2022/06/02 02:20:59;;;;;;;2.03;1.00;;;;;;;;;;4989440;28;20045;-70
2022/06/02 02:23:29;;;;;;;3.63;1.40;;;;;;;;;;4989597;28;20512;-71
2022/06/02 02:26:05;;;;;;;2.00;1.33;;;;;;;;;;4985576;28;20038;-71
2022/06/02 02:28:49;;;;;;;1.17;0.90;;;;;;;;;;4986970;28;20026;-72
2022/06/02 02:31:36;;;;;;;2.03;0.93;;;;;;;;;;4987200;28;20549;-72
2022/06/02 02:34:30;;;;;;;1.85;1.52;;;17.40;96.80;;;;;;4985707;28;20487;-71
2022/06/02 02:37:03;;;;;;;1.95;1.55;;;;;;;;;;4979520;28;20030;-71
2022/06/02 02:39:56;;;;;;;1.65;1.30;;;17.50;97.00;;;;;;4982318;28;20033;-72
2022/06/02 02:42:29;;;;;;;1.55;1.42;;;;;;;;;;4988042;28;20504;-71
2022/06/02 02:45:06;;;;;;;1.83;0.77;;;;;;;;;;4987127;28;20046;-71
2022/06/02 02:47:32;;;;;;;1.45;1.15;;;;;;;;;;4984648;28;20034;-73
2022/06/02 02:50:10;;;;;;;2.53;1.20;;;17.40;96.20;;;;;;4989529;28;20022;-72
2022/06/02 02:52:45;;;;;;;1.42;0.93;;;17.30;99.90;;;;;;4987503;28;20042;-72
2022/06/02 02:55:19;;;;;;;1.17;1.00;;;17.30;96.90;;;;;;4988903;28;20071;-71
2022/06/02 02:58:00;;;;;;;2.53;1.10;;;17.40;97.20;;;;;;4984768;28;20061;-73
2022/06/02 03:00:49;;;;;;;1.55;0.90;;;;;;;;;;4985173;28;20464;-72
2022/06/02 03:03:21;;;;;;;2.95;1.20;;;;;;;;;;4989085;28;20456;-72
2022/06/02 03:05:56;;;;;;;1.80;1.08;;;17.20;97.60;;;;;;4987032;28;20034;-73
2022/06/02 03:08:35;;;;;;;1.80;0.98;;;;;;;;;;4988207;28;20095;-73
2022/06/02 03:11:07;;;;;;;1.10;1.00;;;;;;;;;;4989247;28;20531;-72
2022/06/02 03:13:38;;;;;;;2.97;1.55;;;;;;;;;;4985473;28;20553;-72
2022/06/02 03:16:11;;;;;;;1.60;1.30;;;;;;;;;;4985344;28;20038;-71
2022/06/02 03:18:52;;;;;;;2.00;1.13;;;;;;;;;;4984358;28;20037;-72
2022/06/02 03:21:44;;;;;;;1.60;1.10;;;16.80;99.30;;;;;;4983752;28;20043;-72
2022/06/02 03:24:31;;;;;;;2.40;1.25;;;16.60;98.90;;;;;;4981376;28;20425;-72
2022/06/02 03:27:24;;;;;;;1.80;1.38;;;16.60;99.00;;;;;;4986183;28;20403;-71
2022/06/02 03:30:02;;;;;;;1.60;1.02;;;;;;;;;;4977874;28;20516;-72
2022/06/02 03:32:47;;;;;;;0.90;0.70;;;;;;;;;;4988975;28;20058;-71
2022/06/02 03:35:13;;;;;;;1.55;0.88;;;;;;;;;;4989164;28;20027;-71
2022/06/02 03:37:54;;;;;;;2.08;1.20;;;16.60;99.40;;;;;;4984613;28;20037;-71
2022/06/02 03:40:35;;;;;;;1.20;1.10;;;;;;;;;;4985263;28;20018;-71
2022/06/02 03:43:01;;;;;;;1.23;0.95;;;;;;;;;;4984785;28;20042;-72
2022/06/02 03:45:32;;;;;;;1.17;0.80;;;16.60;98.80;;;;;;4985923;28;20113;-72
2022/06/02 03:48:04;;;;;;;5.25;2.03;;;;;;;;;;4984860;28;20050;-72
2022/06/02 03:50:39;;;;;;;4.65;1.40;;;;;;;;;;4988793;28;20037;-72
2022/06/02 03:53:28;;;;;;;1.55;1.15;;;;;;;;;;4988301;28;20585;-71
2022/06/02 03:56:08;;;;;;;1.42;0.90;;;16.70;98.40;;;;;;4983588;28;20404;-72
2022/06/02 03:58:58;;;;;;;1.65;1.10;;;;;;;;;;4986170;28;20034;-71
2022/06/02 04:01:29;;;;;;;4.00;1.73;;;16.90;99.90;;;;;;4985750;28;20034;-72
2022/06/02 04:04:00;;;;;;;1.50;1.15;;;;;;;;;;4984504;28;20030;-71
2022/06/02 04:06:33;;;;;;;2.72;1.50;;;16.90;99.90;;;;;;4984185;28;20114;-72
2022/06/02 04:09:02;;;;;;;1.58;1.27;;;;;;;;;;4984183;28;20037;-72
2022/06/02 04:14:50;;;;;;;2.35;1.50;;;16.80;99.90;;;;;;4988103;28;20092;-71
2022/06/02 04:17:26;;;;;;;2.65;1.65;;;;;;;;;;4983897;28;20077;-71
2022/06/02 04:23:03;;;;;;;2.20;1.65;;;;;;;;;;4985033;28;20054;-72
2022/06/02 04:25:53;;;;;;;2.83;2.22;;;16.50;99.90;;;;;;4983139;28;20629;-71
2022/06/02 04:28:38;;;;;;;2.25;1.38;;;16.50;99.90;;;;;;4986475;28;20035;-71
2022/06/02 04:31:13;;;;;;;2.47;1.17;;;;;;;;;;4986010;28;20034;-71
2022/06/02 04:33:46;;;;;;;4.57;2.35;;;;;;;;;;4985431;28;20598;-71
2022/06/02 04:36:13;;;;;;;5.38;2.33;;;;;;;;;;4985932;28;20571;-71
2022/06/02 04:38:51;;;;;;;3.75;1.45;;;;;;;;;;4985728;28;20042;-71
2022/06/02 04:41:31;;;;;;;3.60;1.20;;;;;;;;;;4985433;28;20122;-72
2022/06/02 04:44:15;;;;;;;1.60;1.48;;;;;;;;;;4985715;28;20058;-71
2022/06/02 04:46:41;;;;;;;2.55;2.33;;;;;;;;;;4983874;28;20034;-72
2022/06/02 04:49:26;;;;;;;4.32;3.33;;;16.60;99.90;;;;;;4985929;28;20030;-71
2022/06/02 04:52:11;;;;;;;5.38;2.00;;;;;;;;;;4985099;28;20084;-70
2022/06/02 04:54:49;;;;;;;3.95;2.75;;;;;;;;;;4984625;28;20038;-71
2022/06/02 04:57:18;;;;;;;3.10;2.03;;;;;;;;;;4983625;28;20035;-71
2022/06/02 05:00:01;;;;;;;2.95;2.00;;;17.40;99.50;;;;;;4986500;28;20035;-71
2022/06/02 05:02:56;;;;;;;3.03;1.90;;;17.40;99.50;;;;;;4987519;28;20023;-73
2022/06/02 05:05:27;;;;;;;2.75;2.17;;;;;;;;;;4985249;28;20093;-70
2022/06/02 05:08:07;;;;;;;7.90;1.77;;;;;;;;;;4987238;28;20022;-71
2022/06/02 05:10:41;;;;;;;1.33;0.93;;;17.70;97.90;;;;;;4985415;28;20050;-72
2022/06/02 05:13:16;;;;;;;4.57;1.25;;;;;;;;;;4984654;28;20461;-71
2022/06/02 05:16:01;;;;;;;1.77;1.67;;;;;;;;;;4983579;28;20019;-72
2022/06/02 05:18:58;;;;;;;2.75;1.65;;;17.40;99.40;;;;;;4984743;28;20105;-71
2022/06/02 05:21:38;;;;;;;1.55;1.10;;;17.50;99.30;;;;;;4987100;28;20579;-72
2022/06/02 05:24:33;;;;;;;2.45;1.55;;;17.50;98.90;;;;;;4990515;28;20117;-72
2022/06/02 05:27:13;;;;;;;1.52;1.23;;;17.60;98.50;;;;;;4986854;28;20031;-72
2022/06/02 05:29:42;;;;;;;2.22;1.50;;;;;;;;;;4984746;28;20032;-71
2022/06/02 05:32:26;;;;;;;2.03;1.77;;;;;;;;;;4987491;28;20076;-72
2022/06/02 05:35:19;;;;;;;1.75;1.08;;;17.60;97.10;;;;;;4985970;28;20030;-70
2022/06/02 05:37:46;;;;;;;2.00;1.23;;;;;;;;;;4987664;28;20082;-71
2022/06/02 05:40:12;;;;;;;1.38;1.15;;;;;;;;;;4980945;28;20062;-70
2022/06/02 05:42:48;;;;;;;3.88;1.30;;;;;;;;;;4985103;28;20074;-71
2022/06/02 05:45:14;;;;;;;2.30;1.57;;;;;;;;;;4987746;28;20038;-70
2022/06/02 05:48:04;;;;;;;2.65;1.35;;;17.90;96.70;;;;;;4986845;28;20447;-71
2022/06/02 05:50:32;;;;;;;2.55;1.77;;;18.00;99.90;;;;;;4986890;28;20048;-71
2022/06/02 05:52:59;;;;;;;2.40;1.42;;;;;;;;;;4989740;28;20038;-71
2022/06/02 05:55:42;;;;;;;1.55;1.42;;;18.10;96.60;;;;;;4991771;28;20053;-71
2022/06/02 05:58:31;;;;;;;2.05;1.45;;;;;;;;;;4986066;28;20053;-75
2022/06/02 06:00:57;;;;;;;2.28;1.23;;;;;;;;;;4985830;28;20022;-72
2022/06/02 06:03:52;;;;;;;1.52;1.42;;;;;;;;;;4984573;28;20035;-72
2022/06/02 06:06:28;;;;;;;2.30;1.67;;;18.50;96.30;;;;;;4985665;28;20034;-72
2022/06/02 06:09:09;;;;;;;3.33;1.50;;;;;;;;;;4986902;28;20027;-72
2022/06/02 06:11:56;;;;;;;3.50;1.48;;;18.70;95.40;;;;;;4988955;28;20042;-71
2022/06/02 06:14:25;;;;;;;2.97;2.05;;;;;;;;;;4989061;28;20092;-72
2022/06/02 06:17:04;;;;;;;3.42;1.52;;;;;;;;;;4985349;28;20088;-71
2022/06/02 06:19:53;;;;;;;2.22;1.55;;;18.90;94.80;;;;;;4986101;28;20030;-72
2022/06/02 06:22:41;;;;;;;2.20;1.67;;;19.20;94.90;;;;;;4985683;28;20399;-71
2022/06/02 06:25:10;;;;;;;2.55;1.38;;;;;;;;;;4986408;28;20025;-72
2022/06/02 06:27:48;;;;;;;2.10;1.58;;;19.90;93.30;;;;;;4984457;28;20050;-71
2022/06/02 06:30:33;;;;;;;;;;;19.70;93.30;;;;;;4984478;28;20081;-69
2022/06/02 06:33:23;;;;;;;4.60;1.50;;;19.70;92.80;;;;;;4984184;28;20690;-70
2022/06/02 06:36:12;;;;;;;5.18;1.80;;;;;;;;;;4978207;28;20117;-69
2022/06/02 06:38:38;;;;;;;2.40;1.40;;;;;;;;;;4981901;28;20045;-71
2022/06/02 06:41:13;;;;;;;2.17;1.52;;;;;;;;;;4989164;28;20027;-71
2022/06/02 06:44:18;;;;;;;2.25;1.50;;;;;;;;;;4987074;28;20064;-70
2022/06/02 06:46:43;;;;;;;3.03;1.83;;;;;;;;;;4986186;28;20168;-71
2022/06/02 06:49:21;;;;;;;2.05;1.40;;;20.10;92.20;;;;;;4982909;28;20125;-71
2022/06/02 06:52:06;;;;;;;3.47;1.08;;;20.30;92.80;;;;;;4980887;28;20057;-71
2022/06/02 06:55:02;;;;;;;2.38;1.25;;;20.60;92.60;;;;;;4983091;28;20137;-71
2022/06/02 06:57:35;;;;;;;1.83;1.60;;;;;;;;;;4983070;28;20039;-71
2022/06/02 07:00:19;;;;;;;3.47;2.20;;;21.10;90.80;;;;;;4983416;28;20646;-71
2022/06/02 07:02:56;;;;;;;5.28;1.73;;;21.60;90.80;;;;;;4979321;28;20633;-71
2022/06/02 07:05:39;;;;;;;1.83;1.45;;;22.10;88.80;;;;;;4983993;28;20046;-72
2022/06/02 07:08:05;;;;;;;3.80;1.20;;;;;;;;;;4986549;28;20073;-71
2022/06/02 07:10:42;;;;;;;1.92;1.45;;;22.30;87.30;;;;;;4983722;28;20042;-71
2022/06/02 07:13:30;;;;;;;2.42;1.23;;;;;;;;;;4981864;28;20046;-72
2022/06/02 07:16:17;;;;;;;3.00;1.20;;;22.00;90.40;;;;;;4987633;28;20030;-71
2022/06/02 07:18:43;;;;;;;;;;;;;;;;;;4980160;28;20125;-69
2022/06/02 07:21:32;;;;;;;4.83;1.50;;;;;;;;;;4980143;28;20036;-71
2022/06/02 07:24:03;;;;;;;2.17;1.60;;;22.90;89.20;;;;;;4983623;28;20031;-72
2022/06/02 07:26:50;;;;;;;2.83;1.77;;;;;;;;;;4987617;28;20026;-73
2022/06/02 07:29:42;;;;;;;4.18;1.20;;;26.00;78.40;;;;;;4987219;28;20037;-72
2022/06/02 07:32:08;;;;;;;3.88;1.90;;;;;;;;;;4989400;28;20049;-72
2022/06/02 07:35:13;;;;;;;2.55;1.50;;;25.20;75.50;;;;;;5003126;28;20479;-72
2022/06/02 07:38:17;;;;;;;2.80;1.38;;;;;;;;;;5005630;28;20030;-71
2022/06/02 07:40:54;;;;;;;2.63;1.95;;;24.60;78.00;;;;;;4980530;28;20030;-71
2022/06/02 07:43:35;;;;;;;2.17;1.50;;;;;;;;;;4985725;28;20444;-72
2022/06/02 07:46:07;;;;;;;2.58;1.75;;;;;;;;;;4985660;28;20561;-72
2022/06/02 07:49:08;;;;;;;2.28;1.65;;;25.10;78.60;;;;;;4984132;28;20037;-74
2022/06/02 07:51:35;;;;;;;1.63;1.40;;;;;;;;;;4983431;28;20582;-72
2022/06/02 07:54:11;;;;;;;2.28;1.25;;;;;;;;;;4979868;28;20081;-72
2022/06/02 07:56:48;;;;;;;3.47;1.58;;;30.70;61.50;;;;;;4984876;28;20086;-73
2022/06/02 07:59:25;;;;;;;2.05;1.65;;;32.00;62.40;;;;;;4978781;28;20046;-72
2022/06/02 08:02:13;;;;;;;1.83;1.00;;;33.20;54.50;;;;;;4984682;28;20030;-72
2022/06/02 08:05:14;;;;;;;2.28;0.95;;;34.70;49.90;;;;;;4982215;28;20030;-73
2022/06/02 08:07:50;;;;;;;2.03;1.00;;;35.10;46.80;;;;;;4982619;28;20439;-73
2022/06/02 08:10:31;;;;;;;2.33;0.82;;;36.10;62.80;;;;;;4985325;28;20592;-73
2022/06/02 08:13:28;;;;;;;2.25;0.80;;;36.20;43.50;;;;;;5003039;28;20044;-72
2022/06/02 08:15:58;;;;;;;2.28;0.93;;;36.70;58.60;;;;;;5004468;28;20018;-71
2022/06/02 08:18:49;;;;;;;4.93;0.90;;;37.20;41.60;;;;;;5001041;28;20038;-74
2022/06/02 08:21:47;;;;;;;4.95;1.45;;;37.20;38.70;;;;;;5003313;28;20064;-73
2022/06/02 08:24:33;;;;;;;1.20;1.10;;;35.40;46.00;;;;;;5001850;28;20133;-73
2022/06/02 08:26:58;;;;;;;3.10;0.80;;;;;;;;;;5003747;28;20443;-74
2022/06/02 08:29:39;;;;;;;3.22;1.15;;;;;;;;;;5005267;28;20091;-74
2022/06/02 08:32:28;;;;;;;5.78;1.38;;;;;;;;;;5006302;28;20041;-73
2022/06/02 08:35:15;;;;;;;4.05;1.75;;;;;;;;;;5002756;28;20033;-74
2022/06/02 08:37:53;;;;;;;4.03;1.40;;;;;;;;;;5000281;28;20034;-73
2022/06/02 08:40:39;;;;;;;1.95;1.20;;;;;;;;;;5001490;28;20036;-73
2022/06/02 08:43:06;;;;;;;3.70;1.42;;;;;;;;;;4996802;28;20587;-74
2022/06/02 08:45:40;;;;;;;3.80;1.90;;;;;;;;;;5003271;28;20040;-73
2022/06/02 08:48:23;;;;;;;1.90;1.30;;;;;;;;;;5001394;28;20030;-74
2022/06/02 08:51:04;;;;;;;2.35;0.95;;;;;;;;;;5000273;28;20054;-73
2022/06/02 08:53:49;;;;;;;2.85;1.02;;;;;;;;;;5007309;28;20033;-70
2022/06/02 08:56:33;;;;;;;2.00;1.45;;;;;;;;;;5010586;28;20038;-70
2022/06/02 08:59:18;;;;;;;1.98;1.55;;;;;;;;;;5006393;28;20402;-70
2022/06/02 09:01:47;;;;;;;1.50;0.90;;;;;;;;;;5008931;28;20046;-72
2022/06/02 09:04:19;;;;;;;3.55;1.52;;;;;;;;;;5004753;28;20052;-72
2022/06/02 09:07:00;;;;;;;1.27;0.80;;;;;;;;;;5011168;28;20040;-72
2022/06/02 09:09:25;;;;;;;6.45;1.20;;;28.50;66.90;;;;;;5005669;28;20094;-73
2022/06/02 09:12:26;;;;;;;5.03;0.93;;;26.60;44.30;;;;;;5016639;28;20037;-73
2022/06/02 09:15:13;;;;;;;2.67;1.10;;;28.80;45.10;;;;;;5013516;28;20030;-72
2022/06/02 09:17:57;;;;;;;1.77;1.20;;;28.30;47.30;;;;;;4998796;28;20073;-71
2022/06/02 09:20:41;;;;;;;3.65;1.27;;;;;;;;;;5008500;28;20038;-72
2022/06/02 09:23:15;;;;;;;3.40;1.05;;;;;;;;;;5008008;28;20026;-72
2022/06/02 09:25:59;;;;;;;1.75;1.20;;;28.00;47.30;;;;;;5008187;28;20034;-71
2022/06/02 09:28:43;;;;;;;1.50;0.52;;;28.70;47.00;;;;;;5006431;28;20033;-72
2022/06/02 09:31:29;;;;;;;1.27;0.80;;;;;;;;;;5002989;28;20038;-71
2022/06/02 09:34:01;;;;;;;1.17;0.63;;;;;;;;;;5005436;28;20030;-71
2022/06/02 09:36:45;;;;;;;10.35;1.30;;;27.50;48.50;;;;;;5004893;28;20184;-70
2022/06/02 09:39:29;;;;;;;3.13;0.82;;;;;;;;;;5004675;28;20041;-69
2022/06/02 09:42:07;;;;;;;2.92;0.80;;;26.40;70.00;;;;;;5007566;28;20083;-70
2022/06/02 09:44:47;;;;;;;4.25;1.38;;;;;;;;;;5010023;28;20521;-70
2022/06/02 09:47:31;;;;;;;3.53;1.20;;;25.50;53.20;;;;;;5009617;28;20044;-69
2022/06/02 09:50:18;;;;;;;2.83;1.77;;;25.10;54.30;;;;;;5002716;28;20041;-69
2022/06/02 09:53:21;;;;;;;4.20;2.03;;;24.40;54.20;;;;;;5009465;28;20052;-70
2022/06/02 09:55:47;;;;;;;26.23;1.63;;;;;;;;;;5007478;28;20030;-70
2022/06/02 09:58:22;;;;;;;2.58;1.15;;;;;;;;;;5004413;28;20030;-69
2022/06/02 10:01:07;;;;;;;2.42;1.30;;;;;;;;;;5006756;28;20449;-70
2022/06/02 10:04:00;;;;;;;1.58;1.15;;;23.50;56.70;;;;;;5004879;28;20034;-70
2022/06/02 10:06:44;;;;;;;1.75;0.82;;;;;;;;;;5004781;28;20052;-70
2022/06/02 10:09:24;;;;;;;3.58;1.65;;;;;;;;;;5004524;28;20557;-71
2022/06/02 10:12:54;;;;;;;2.15;1.33;;;;;;;;;;5007426;28;20046;-71
2022/06/02 10:14:57;;;;;;;3.30;1.20;;;;;;;;;;4995016;28;20038;-71
2022/06/02 10:17:47;;;;;;;2.17;1.20;;;25.00;55.50;;;;;;5008969;28;20033;-71
2022/06/02 10:20:31;;;;;;;3.53;1.13;;;;;;;;;;5009239;28;20442;-71
2022/06/02 10:23:16;;;;;;;0.95;0.68;;;;;;;;;;5004286;28;20040;-72
2022/06/02 10:25:54;;;;;;;2.20;0.90;;;;;;;;;;5007153;28;20108;-72
2022/06/02 10:28:19;;;;;;;2.42;1.38;;;29.50;57.70;;;;;;5005029;28;20096;-71
2022/06/02 10:31:04;;;;;;;1.87;1.10;;;;;;;;;;5003929;28;20026;-71
2022/06/02 10:33:53;;;;;;;2.83;1.83;;;30.40;46.60;;;;;;5007293;28;20042;-72
2022/06/02 10:36:38;;;;;;;4.57;1.85;;;;;;;;;;5003459;28;20027;-71
2022/06/02 10:39:34;;;;;;;4.97;1.02;;;29.90;44.80;;;;;;5004287;28;20029;-71
2022/06/02 10:42:13;;;;;;;1.30;0.63;;;;;;;;;;4996912;28;20416;-71
2022/06/02 10:44:57;;;;;;;1.77;0.70;;;;;;;;;;5003907;28;20032;-71
2022/06/02 10:47:48;;;;;;;2.80;0.60;;;30.10;44.50;;;;;;5008385;28;20061;-71
2022/06/02 10:50:20;;;;;;;5.70;0.95;;;;;;;;;;5008281;28;20029;-70
2022/06/02 10:52:46;;;;;;;0.95;0.65;;;;;;;;;;5003686;28;20531;-71
2022/06/02 10:55:43;;;;;;;1.75;0.90;;;31.10;41.00;;;;;;5005123;28;20111;-73
2022/06/02 10:58:21;;;;;;;2.92;1.00;;;;;;;;;;5004307;28;20100;-71
2022/06/02 11:01:24;;;;;;;1.88;0.50;;;31.70;42.00;;;;;;5003663;28;20084;-71
2022/06/02 11:04:31;;;;;;;2.42;0.50;;;31.70;39.90;;;;;;5003407;28;20053;-71
2022/06/02 11:07:11;;;;;;;2.33;1.58;;;31.40;40.40;;;;;;5003722;28;20037;-71
2022/06/02 11:09:37;;;;;;;0.63;0.30;;;;;;;;;;5002305;28;20633;-71
2022/06/02 11:12:21;;;;;;;0.65;0.50;;;30.40;38.40;;;;;;5003666;28;20125;-71
2022/06/02 11:15:25;;;;;;;0.73;0.30;;;29.70;40.40;;;;;;4997267;28;20384;-71
2022/06/02 11:18:19;;;;;;;1.25;0.50;;;29.20;39.20;;;;;;4996068;28;20033;-71
2022/06/02 11:21:04;;;;;;;2.28;0.85;;;;;;;;;;5004138;28;20038;-70
2022/06/02 11:23:57;;;;;;;1.33;0.50;;;28.40;43.90;;;;;;5007888;28;20037;-71
2022/06/02 11:26:41;;;;;;;2.33;0.65;;;27.90;42.20;;;;;;5008385;28;20091;-69
2022/06/02 11:29:41;;;;;;;0.65;0.22;;;28.10;41.50;;;;;;5007429;28;20030;-71
2022/06/02 11:32:18;;;;;;;0.38;0.30;;;;;;;;;;5002254;28;20030;-70
2022/06/02 11:34:50;;;;;;;0.98;0.40;;;;;;;;;;5005282;28;20169;-71
2022/06/02 11:37:43;;;;;;;0.32;0.30;;;28.90;42.10;;;;;;5005085;28;20041;-71
2022/06/02 11:40:09;;;;;;;0.40;0.20;;;;;;;;;;5003844;28;20574;-70
2022/06/02 11:43:06;;;;;;;0.93;0.40;;;28.40;39.60;;;;;;5005930;28;20088;-71
2022/06/02 11:46:06;;;;;;;0.50;0.20;;;28.40;41.70;;;;;;5004892;28;20057;-73
2022/06/02 11:48:51;;;;;;;0.52;0.40;;;;;;;;;;5005783;28;20033;-71
2022/06/02 11:51:47;;;;;;;0.75;0.40;;;28.00;43.10;;;;;;5003531;28;20026;-71
2022/06/02 11:54:25;;;;;;;0.80;0.38;;;;;;;;;;5002754;28;20085;-71
2022/06/02 11:57:18;;;;;;;2.38;1.15;;;27.60;45.70;;;;;;5004918;28;20026;-71
2022/06/02 12:00:06;;;;;;;1.98;0.60;;;27.40;48.30;;;;;;4996664;28;20033;-70
2022/06/02 12:02:50;;;;;;;5.45;2.45;;;;;;;;;;5007055;28;20202;-71
2022/06/02 12:05:19;;;;;;;20.60;1.95;;;;;;;;;;5007424;28;20457;-71
2022/06/02 12:08:12;;;;;;;1.50;0.98;;;26.20;53.10;;;;;;5002819;28;20022;-70
2022/06/02 12:11:15;;;;;;;3.65;1.13;;;26.00;54.00;;;;;;5006577;28;20068;-71
2022/06/02 12:13:45;;;;;;;13.63;2.00;;;;;;;;;;5007710;28;20037;-70
2022/06/02 12:16:11;;;;;;;2.30;0.98;;;25.70;71.90;;;;;;5004016;28;20034;-70
2022/06/02 12:19:03;;;;;;;2.72;1.23;;;;;;;;;;5003295;28;20168;-71
2022/06/02 12:21:41;;;;;;;1.63;1.17;;;;;;;;;;4981877;28;20061;-72
2022/06/02 12:24:13;;;;;;;9.90;2.45;;;;;;;;;;4981155;28;20826;-71
2022/06/02 12:26:51;;;;;;;1.98;1.35;;;24.00;64.50;;;;;;4975459;28;20039;-71
2022/06/02 12:29:17;;;;;;;1.83;1.08;;;;;;;;;;4981633;28;20034;-71
2022/06/02 12:31:58;;;;;;;5.07;1.20;;;;;;;;;;4979800;28;20149;-71
2022/06/02 12:34:30;;;;;;;2.35;1.45;;;;;;;;;;4984653;28;20077;-71
2022/06/02 12:37:02;;;;;;;1.42;1.08;;;;;;;;;;4981642;28;20573;-73
2022/06/02 12:39:30;;;;;;;3.47;1.40;;;;;;;;;;4981207;28;20051;-71
2022/06/02 12:42:15;;;;;;;2.03;1.50;;;;;;;;;;4981071;28;20093;-72
2022/06/02 12:44:58;;;;;;;4.65;1.50;;;;;;;;;;4980804;28;20048;-71
2022/06/02 12:47:43;;;;;;;2.03;1.40;;;;;;;;;;4981975;28;20076;-72
2022/06/02 12:50:40;;;;;;;1.73;1.27;;;24.70;70.20;;;;;;4982886;28;20078;-71
2022/06/02 12:53:11;;;;;;;2.30;1.20;;;;;;;;;;4978467;28;20046;-72
2022/06/02 12:55:49;;;;;;;1.42;1.00;;;;;;;;;;4984014;28;20038;-71
2022/06/02 12:58:21;;;;;;;2.42;1.30;;;;;;;;;;4993219;28;20128;-70
2022/06/02 13:00:47;;;;;;;9.02;2.75;;;;;;;;;;5000422;28;20046;-71
2022/06/02 13:03:19;;;;;;;3.95;1.95;;;;;;;;;;5000738;28;20019;-71
2022/06/02 13:06:04;;;;;;;2.20;1.15;;;;;;;;;;5002943;28;20026;-72
2022/06/02 13:08:32;;;;;;;1.00;0.80;;;25.30;81.90;;;;;;4999391;28;20034;-71
2022/06/02 13:10:58;;;;;;;1.17;0.55;;;;;;;;;;5003248;28;20044;-71
2022/06/02 13:13:27;;;;;;;1.58;0.40;;;;;;;;;;5003349;28;20141;-70
2022/06/02 13:15:56;;;;;;;1.58;0.90;;;;;;;;;;5001621;28;20018;-70
2022/06/02 13:18:28;;;;;;;2.05;0.63;;;26.50;58.40;;;;;;5001644;28;20636;-71
2022/06/02 13:21:15;;;;;;;1.10;0.65;;;26.80;56.30;;;;;;5003328;28;20502;-71
2022/06/02 13:23:41;;;;;;;3.63;1.02;;;;;;;;;;4995826;28;20029;-70
2022/06/02 13:26:24;;;;;;;2.63;1.00;;;27.10;52.50;;;;;;5002793;28;20028;-72
2022/06/02 13:28:59;;;;;;;1.85;0.65;;;;;;;;;;4999832;28;20113;-72
2022/06/02 13:31:46;;;;;;;2.88;0.70;;;27.00;71.60;;;;;;5003338;28;20044;-71
2022/06/02 13:34:33;;;;;;;0.90;0.50;;;26.80;53.40;;;;;;5005878;28;20045;-73
2022/06/02 13:36:59;;;;;;;6.43;0.60;;;;;;;;;;5001897;28;20838;-70
2022/06/02 13:40:03;;;;;;;3.65;0.63;;;26.50;50.00;;;;;;4999090;28;20163;-70
2022/06/02 13:42:44;;;;;;;1.73;0.90;;;;;;;;;;5006710;28;20072;-72
2022/06/02 13:45:12;;;;;;;1.65;0.30;;;;;;;;;;5007545;28;20712;-71
2022/06/02 13:47:57;;;;;;;0.93;0.40;;;;;;;;;;5009571;28;20057;-70
2022/06/02 13:50:26;;;;;;;1.95;0.63;;;;;;;;;;5005531;28;20113;-72
2022/06/02 13:53:07;;;;;;;0.30;0.20;;;;;;;;;;5008474;28;20046;-72
2022/06/02 13:58:42;;;;;;;0.77;0.47;;;;;;;;;;5007787;28;20073;-70
2022/06/02 14:01:17;;;;;;;0.40;0.40;;;;;;;;;;5008765;28;20040;-71
2022/06/02 14:03:43;;;;;;;2.22;0.30;;;;;;;;;;5004331;28;20483;-71
2022/06/02 14:06:19;;;;;;;1.42;0.40;;;;;;;;;;5004366;28;20085;-70
2022/06/02 14:09:10;;;;;;;0.40;0.20;;;;;;;;;;4997530;28;20030;-71
2022/06/02 14:11:40;;;;;;;0.77;0.40;;;;;;;;;;5008611;28;20297;-70
2022/06/02 14:14:14;;;;;;;1.48;0.63;;;27.40;48.40;;;;;;5004953;28;20025;-71
2022/06/02 14:17:13;;;;;;;1.58;0.38;;;;;;;;;;5004832;28;20036;-70
2022/06/02 14:20:11;;;;;;;0.88;0.40;;;27.30;46.40;;;;;;5018010;28;20034;-71
2022/06/02 14:22:43;;;;;;;3.65;0.45;;;27.20;46.90;;;;;;5023772;28;20053;-71
2022/06/02 14:25:26;;;;;;;0.93;0.50;;;27.40;47.20;;;;;;5022530;28;20060;-71
2022/06/02 14:28:01;;;;;;;0.77;0.35;;;;;;;;;;5021190;28;20064;-71
2022/06/02 14:30:40;;;;;;;2.42;0.63;;;27.30;47.60;;;;;;5021324;28;20120;-70
2022/06/02 14:33:11;;;;;;;0.85;0.50;;;;;;;;;;5021764;28;20045;-71
2022/06/02 14:35:39;;;;;;;0.63;0.52;;;;;;;;;;5010186;28;20116;-71
2022/06/02 14:38:19;;;;;;;0.60;0.45;;;;;;;;;;5024716;28;20088;-69
2022/06/02 14:40:48;;;;;;;1.00;0.40;;;;;;;;;;5015872;28;20168;-70
2022/06/02 14:43:14;;;;;;;1.50;0.60;;;;;;;;;;5011589;28;20054;-70
2022/06/02 14:45:53;;;;;;;4.32;0.68;;;27.60;49.40;;;;;;5020124;28;20026;-71
2022/06/02 14:48:40;;;;;;;0.95;0.32;;;27.70;50.00;;;;;;5017128;28;20569;-70
2022/06/02 14:51:14;;;;;;;2.67;0.70;;;27.40;49.00;;;;;;5012969;28;20090;-70
2022/06/02 14:53:45;;;;;;;2.13;1.52;;;;;;;;;;5010471;28;20049;-71
2022/06/02 14:56:26;;;;;;;2.25;1.00;;;;;;;;;;5009953;28;20497;-72
2022/06/02 14:59:09;;;;;;;2.10;1.55;;;;;;;;;;5003246;28;20038;-70
2022/06/02 15:01:38;;;;;;;2.83;0.50;;;;;;;;;;5005463;28;20038;-70
2022/06/02 15:04:15;;;;;;;0.57;0.40;;;;;;;;;;5003722;28;20089;-70
2022/06/02 15:07:01;;;;;;;1.10;0.60;;;;;;;;;;5004067;28;20044;-70
2022/06/02 15:09:46;;;;;;;1.85;0.98;;;;;;;;;;5002909;28;20550;-70
2022/06/02 15:12:15;;;;;;;1.70;0.70;;;;;;;;;;5003017;28;20046;-71
2022/06/02 15:14:56;;;;;;;2.25;0.40;;;;;;;;;;5007727;28;20387;-70
2022/06/02 15:17:44;;;;;;;1.63;0.60;;;26.70;50.40;;;;;;5006532;28;20037;-71
2022/06/02 15:20:10;;;;;;;1.05;0.57;;;;;;;;;;5001332;28;20095;-71